CST,Max TemperatureF,Mean TemperatureF,Min TemperatureF,Max Dew PointF,MeanDew PointF,Min DewpointF,Max Humidity, Mean Humidity, Min Humidity, Max Sea Level PressureIn, Mean Sea Level PressureIn, Min Sea Level PressureIn, Max VisibilityMiles, Mean VisibilityMiles, Min VisibilityMiles, Max Wind SpeedMPH, Mean Wind SpeedMPH, Max Gust SpeedMPH,PrecipitationIn, CloudCover, Events, WindDirDegrees
2013-11-1,51,46,41,48,43,39,96,89,70,29.77,29.64,29.48,10,9,7,23,14,34,0.00,7,Rain,253
2013-11-2,48,40,32,40,37,31,97,85,68,30.13,29.93,29.76,10,8,5,15,7,20,0.00,4,,291
2013-11-3,55,40,26,48,33,26,98,78,43,30.29,30.23,30.12,10,8,0,10,2,,0.00,0,Fog,142
2013-11-4,57,48,38,41,37,32,79,69,47,30.26,30.22,30.17,10,10,10,23,10,26,0.00,1,,160
2013-11-5,56,52,47,48,44,41,93,76,61,30.30,30.20,30.02,10,10,7,21,8,29,0.02,6,Rain,168
2013-11-6,57,46,34,51,44,31,95,90,62,30.16,30.00,29.89,10,9,2,23,17,32,0.26,6,Rain,238
2013-11-7,46,36,25,37,29,24,96,81,52,30.28,30.23,30.16,10,10,5,17,8,28,0.00,1,,275
2013-11-8,50,38,25,35,29,24,96,69,42,30.33,30.23,30.06,10,10,7,20,7,28,0.00,0,,216
2013-11-9,61,51,41,41,35,29,74,59,41,30.14,30.02,29.95,10,10,10,24,16,32,0.00,0,,239
2013-11-10,49,40,30,34,29,18,88,69,48,30.36,30.28,30.15,10,10,10,15,9,21,0.00,0,,277
2013-11-11,49,38,27,39,32,23,98,80,58,30.41,30.20,30.08,10,9,2,21,10,28,0.07,7,Rain-Snow,267
2013-11-12,32,26,19,26,20,16,91,81,64,30.66,30.59,30.41,10,10,4,20,11,24,0.04,3,,319
2013-11-13,37,26,15,24,19,13,93,72,51,30.61,30.47,30.26,10,10,10,20,9,25,0.00,0,,219
2013-11-14,50,38,27,24,22,19,76,54,35,30.26,30.12,30.03,10,10,10,23,16,32,0.00,0,,203
2013-11-15,53,45,37,38,29,24,86,57,41,30.04,30.01,29.97,10,10,10,16,12,21,0.00,2,,193
2013-11-16,60,51,42,57,48,39,95,86,66,29.98,29.83,29.66,10,8,2,29,16,34,0.12,6,Rain,174
2013-11-17,66,62,58,62,59,56,95,91,85,29.65,29.53,29.28,10,9,2,30,18,45,0.19,7,Rain,184
2013-11-18,,,,,,,,,,,,,,,,,,,,,,
2013-11-19,32,30,28,25,23,22,83,76,64,30.29,30.28,30.26,10,10,10,8,6,,0.00,0,,100
2013-11-20,44,34,25,36,29,21,88,73,56,30.26,30.18,30.09,10,10,10,14,7,,0.00,3,Rain,125
2013-11-21,48,46,43,48,43,35,100,89,68,30.18,30.14,30.11,10,7,0,12,7,,0.30,8,Fog-Rain,183
2013-11-22,47,38,28,47,37,26,100,93,81,30.45,30.32,30.15,10,6,1,17,8,22,0.02,6,Rain,338
2013-11-23,29,22,15,27,16,7,93,73,59,30.65,30.52,30.41,10,10,10,23,11,28,0.00,3,Snow,321
2013-11-24,25,18,10,10,7,0,85,63,34,30.71,30.59,30.43,10,10,10,13,7,,0.00,0,,283
2013-11-25,32,26,19,24,17,10,76,65,58,30.41,30.23,30.13,10,10,7,17,10,23,0.00,6,Snow,207
2013-11-26,37,30,22,28,23,11,80,72,60,30.14,30.05,29.97,10,10,10,20,9,28,0.00,8,,277
2013-11-27,27,20,13,14,9,6,83,64,43,30.27,30.18,30.07,10,10,10,20,14,28,0.00,2,,308
2013-11-28,37,27,17,19,15,11,81,64,44,30.46,30.28,30.18,10,10,10,22,8,29,0.00,2,,240
2013-11-29,36,24,12,21,17,10,90,72,50,30.60,30.51,30.41,10,10,10,9,4,,0.00,0,,115
2013-11-30,50,38,27,29,25,20,76,61,43,30.39,30.21,30.07,10,10,10,20,8,24,0.00,0,,186